Tours-Val-de-Loire Airport

LFOT · Indre-et-Loire, Centre, França

História da METAR LFOT · Tours-Val-de-Loire Airport

Abaixo você vê METARs dos últimos dias. Selecione um ano para navegar pelos METARs mais antigos, a partir do ano 2007.

16 de junho de 2024

Hora Código Clima Temp. Visibilidade Tecto Vento METAR/SPECI
04:00
V
14 °C 10 km+ 4.400 ft 180° 180° 10 kt METAR LFOT 160200Z AUTO 18010KT 9999 SCT014 BKN044 OVC056 14/12 Q1009 TEMPO 3500 RADZ BECMG BKN007
03:30
M
14 °C 10 km+ 1.400 ft 200° 200° 10 kt METAR LFOT 160130Z AUTO 20010KT 170V230 9999 BKN014 BKN039 OVC047 14/12 Q1009 TEMPO 3500 RADZ BECMG BKN007
03:00
M
13 °C 10 km+ 1.400 ft 190° 190° 9 kt METAR LFOT 160100Z AUTO 19009KT 9999 BKN014 BKN047 OVC054 13/11 Q1009 NOSIG
02:30
V
13 °C 10 km+ 3.100 ft 200° 200° 9 kt METAR LFOT 160030Z AUTO 20009KT 9999 FEW018 SCT025 BKN031 13/11 Q1010 TEMPO BKN012
02:00
M
13 °C 10 km+ 1.700 ft 220° 220° 8 kt METAR LFOT 160000Z AUTO 22008KT 9999 BKN017 BKN025 OVC030 13/11 Q1010 TEMPO BKN012
01:30
M
13 °C 10 km+ 1.600 ft 210° 210° 7 kt METAR LFOT 152330Z AUTO 21007KT 9999 BKN016 OVC025 13/11 Q1010 NOSIG
01:00
M
13 °C 10 km+ 1.600 ft 230° 230° 10 kt METAR LFOT 152300Z AUTO 23010KT 9999 -RA BKN016 BKN022 BKN031 13/11 Q1010 NOSIG
00:30
V
14 °C 10 km+ 4.700 ft 220° 220° 12 kt METAR LFOT 152230Z AUTO 22012KT 9999 FEW026 SCT041 BKN047 14/11 Q1011 NOSIG
00:00
V
14 °C 10 km+ 7.800 ft 220° 220° 11 kt METAR LFOT 152200Z AUTO 22011KT 9999 FEW022 SCT046 BKN078 14/10 Q1011 NOSIG

15 de junho de 2024

Hora Código Clima Temp. Visibilidade Tecto Vento METAR/SPECI
23:30
V
14 °C 10 km+ 8.400 ft 210° 210° 11 kt METAR LFOT 152130Z AUTO 21011KT 180V240 9999 FEW027 SCT062 OVC084 14/10 Q1011 NOSIG
23:00
V
14 °C 10 km+ 6.800 ft 220° 220° 11 kt METAR LFOT 152100Z AUTO 22011KT 9999 FEW040 SCT056 BKN068 14/11 Q1011 NOSIG
22:30
V
14 °C 10 km+ 4.700 ft 220° 220° 10 kt METAR LFOT 152030Z AUTO 22010KT 9999 BKN047 BKN054 OVC088 14/11 Q1010 NOSIG
22:00
V
14 °C 10 km+ 8.600 ft 220° 220° 11 kt METAR LFOT 152000Z AUTO 22011KT 9999 FEW039 SCT045 OVC086 14/11 Q1010 NOSIG
21:30
V
15 °C 10 km+ 4.800 ft 220° 220° 9 kt METAR LFOT 151930Z AUTO 22009KT 9999 FEW031 BKN048 BKN062 15/11 Q1010 NOSIG
21:00
V
15 °C 10 km+ 5.200 ft 230° 230° 12 kt METAR LFOT 151900Z AUTO 23012KT 9999 SCT036 BKN052 BKN066 15/11 Q1010 TEMPO 23015G30KT BKN040TCU
20:30
V
15 °C 10 km+ 4.100 ft 250° 250° 11 kt METAR LFOT 151830Z AUTO 25011KT 9999 FEW035 BKN041 BKN048 15/11 Q1010 TEMPO 23015G30KT BKN040TCU
20:00
V
17 °C 10 km+ 4.900 ft 240° 240° 11 kt METAR LFOT 151800Z AUTO 24011KT 200V270 9999 SCT041 BKN049 BKN064 17/08 Q1010 TEMPO SCT030TCU
19:30
V
18 °C 10 km+ 3.800 ft 240° 240° 15 kt METAR LFOT 151730Z AUTO 24015KT 9999 BKN038 BKN045 OVC082 18/08 Q1010 TEMPO SCT030TCU
19:00
V
18 °C 10 km+ 5.400 ft 240° 240° 13 kt METAR LFOT 151700Z AUTO 24013KT 210V270 9999 FEW040 SCT046 BKN054 18/09 Q1010 TEMPO 23015G30KT SCT030TCU
18:30
V
18 °C 10 km+ 8.600 ft 240° 240° 16 kt METAR LFOT 151630Z AUTO 24016KT 210V270 9999 FEW033 SCT058 OVC086 18/09 Q1010 TEMPO 23015G30KT SCT030TCU
18:00
V
18 °C 10 km+ 6.600 ft 240° 240° 15 kt METAR LFOT 151600Z AUTO 24015KT 9999 FEW031 BKN066 OVC080 18/10 Q1010 TEMPO 23015G30KT BKN030TCU
17:30
V
17 °C 10 km+ 7.000 ft 240° 240° 12 kt METAR LFOT 151530Z AUTO 24012KT 210V280 9999 FEW029 SCT058 BKN070 17/09 Q1010 TEMPO 23015G30KT BKN030TCU
17:00
V
17 °C 10 km+ 5.400 ft 250° 250° 12 kt METAR LFOT 151500Z AUTO 25012KT 230V290 9999 FEW027 SCT042 BKN054 17/10 Q1010 TEMPO 23015G30KT BKN030TCU
16:30
V
16 °C 10 km+ - 260° 260° 10 kt METAR LFOT 151430Z AUTO 26010KT 9999 //////TCU 16/10 Q1010 TEMPO 23015G30KT
16:00
V
17 °C 10 km+ 4.600 ft 260° 260° 12 kt METAR LFOT 151400Z AUTO 26012KT 200V300 9999 BKN046 BKN056 OVC070 17/09 Q1010 TEMPO 23015G30KT BKN030TCU
15:30
V
19 °C 10 km+ 6.600 ft 240° 240° 12 kt METAR LFOT 151330Z AUTO 24012KT 190V280 9999 FEW043 BKN066 OVC082 19/09 Q1009 TEMPO 23015G30KT BKN030TCU
15:00
V
18 °C 10 km+ - 220° 220° 13 kt METAR LFOT 151300Z AUTO 22013KT 190V260 CAVOK 18/09 Q1010 TEMPO 23015G30KT BKN030TCU
14:30
V
17 °C 10 km+ - 200° 200° 13 kt METAR LFOT 151230Z AUTO 20013KT 170V240 CAVOK 17/10 Q1010 TEMPO 23015G30KT BKN030TCU
14:00
V
18 °C 10 km+ 6.800 ft 230° 230° 14 kt METAR LFOT 151200Z AUTO 23014KT 200V270 9999 FEW040 BKN068 BKN084 18/08 Q1010 TEMPO 23015G30KT BKN030TCU
13:30
V
19 °C 10 km+ 8.000 ft 220° 220° 12 kt METAR LFOT 151130Z AUTO 22012KT 180V250 9999 FEW035 SCT068 BKN080 19/09 Q1010 TEMPO 23015G30KT BKN030TCU
13:00
V
16 °C 10 km+ 4.800 ft 220° 220° 11 kt METAR LFOT 151100Z AUTO 22011KT 180V250 9999 FEW028 SCT037 BKN048 16/09 Q1010 TEMPO 22017G32KT 4000 SHRA SCT030TCU
12:30
V
17 °C 10 km+ 4.900 ft 230° 230° 11 kt METAR LFOT 151030Z AUTO 23011KT 200V260 9999 FEW040 OVC049 17/09 Q1010 TEMPO 22017G32KT 4000 SHRA SCT030TCU
12:00
V
16 °C 10 km+ 3.900 ft 230° 230° 11 kt METAR LFOT 151000Z AUTO 23011KT 190V260 9999 BKN039 BKN045 BKN058 16/09 Q1010 TEMPO 22017G32KT 4000 SHRA SCT030TCU
11:30
V
17 °C 9 km 4.800 ft 240° 240° 14 kt METAR LFOT 150930Z AUTO 24014KT 190V270 9000 SCT041 BKN048 BKN060 17/07 Q1010 TEMPO 22017G32KT 4000 SHRA SCT030TCU
11:00
M
17 °C 6 km - 240° 240° 13 kt METAR LFOT 150900Z AUTO 24013KT 210V270 6000 FEW030 SCT047 17/08 Q1010 NOSIG
10:30
M
16 °C 6 km - 230° 230° 12 kt METAR LFOT 150830Z AUTO 23012KT 190V250 6000 FEW030 SCT046 16/09 Q1010 NOSIG
10:00
M
16 °C 6 km 6.200 ft 230° 230° 14 kt METAR LFOT 150800Z AUTO 23014KT 200V260 6000 FEW028 BKN062 16/09 Q1011 NOSIG
09:30
M
15 °C 6 km - 230° 230° 12 kt METAR LFOT 150730Z AUTO 23012KT 190V250 6000 FEW023 SCT058 15/09 Q1011 NOSIG
09:00
M
14 °C 6 km - 220° 220° 13 kt METAR LFOT 150700Z AUTO 22013KT 190V260 6000 FEW042 SCT049 14/09 Q1010 NOSIG
08:30
M
13 °C 6 km - 220° 220° 11 kt METAR LFOT 150630Z AUTO 22011KT 190V250 6000 NSC 13/10 Q1010 NOSIG
08:00
I
13 °C 2,7 km - 220° 220° 11 kt METAR LFOT 150600Z AUTO 22011KT 6000 2700 NSC 13/10 Q1010 NOSIG
07:30
I
12 °C 2,3 km - 220° 220° 9 kt METAR LFOT 150530Z AUTO 22009KT 6000 2300 NSC 12/10 Q1010 NOSIG
07:00
I
12 °C 2,1 km - 210° 210° 8 kt METAR LFOT 150500Z AUTO 21008KT 6000 2100 FEW026 12/10 Q1010 NOSIG
06:30
I
12 °C 3,8 km 2.800 ft 220° 220° 8 kt METAR LFOT 150430Z AUTO 22008KT 9999 3800 BKN028 BKN036 BKN048 12/10 Q1010 NOSIG
06:00
V
11 °C 10 km+ 3.400 ft 220° 220° 7 kt METAR LFOT 150400Z AUTO 22007KT 9999 BKN034 BKN043 11/09 Q1010 NOSIG
05:30
V
11 °C 10 km+ - 230° 230° 8 kt METAR LFOT 150330Z AUTO 23008KT 9999 SCT031 11/09 Q1009 NOSIG
05:00
V
12 °C 10 km+ - 240° 240° 8 kt METAR LFOT 150300Z AUTO 24008KT 9999 FEW033 12/09 Q1009 NOSIG
04:30
V
12 °C 10 km+ - 240° 240° 11 kt METAR LFOT 150230Z AUTO 24011KT CAVOK 12/09 Q1009 NOSIG
04:00
V
12 °C 10 km+ 10.000 ft 240° 240° 12 kt METAR LFOT 150200Z AUTO 24012KT 9999 FEW016 BKN100 12/10 Q1009 NOSIG
03:30
M
13 °C 10 km+ 1.600 ft 230° 230° 12 kt METAR LFOT 150130Z AUTO 23012KT 9999 BKN016 BKN024 BKN041 13/10 Q1008 NOSIG
03:00
V
13 °C 10 km+ 6.400 ft 240° 240° 10 kt METAR LFOT 150100Z AUTO 24010KT 9999 FEW017 SCT026 OVC064 13/11 Q1008 NOSIG
02:30
V
13 °C 10 km+ - 240° 240° 14 kt METAR LFOT 150030Z AUTO 24014KT 200V260 CAVOK 13/10 Q1008 NOSIG
02:00
V
13 °C 10 km+ 9.200 ft 230° 230° 15 kt METAR LFOT 150000Z AUTO 23015KT 9999 FEW028 SCT074 BKN092 13/11 Q1008 TEMPO 4000 -SHRA SCT025TCU BECMG 21012G22KT
01:30
M
14 °C 10 km+ 2.900 ft 220° 220° 11 kt METAR LFOT 142330Z AUTO 22011KT 9999 RA FEW022/// BKN029/// BKN038/// ///TCU 14/11 Q1008 TEMPO 22017G32KT 4000 -SHRA BECMG SCT030
01:00
V
14 °C 10 km+ - 220° 220° 10 kt METAR LFOT 142300Z AUTO 22010KT 9999 FEW046 SCT072 14/10 Q1008 TEMPO 23020G30KT 2500 SHRA BKN020TCU
00:30
V
14 °C 10 km+ - 230° 230° 9 kt METAR LFOT 142230Z AUTO 23009KT CAVOK 14/09 Q1008 TEMPO 23020G30KT 2500 SHRA BKN020TCU
00:00
V
15 °C 10 km+ - 240° 240° 11 kt METAR LFOT 142200Z AUTO 24011KT CAVOK 15/10 Q1008 TEMPO 23020G30KT 2500 SHRA BKN020TCU

14 de junho de 2024

Hora Código Clima Temp. Visibilidade Tecto Vento METAR/SPECI
23:30
V
15 °C 10 km+ - 250° 250° 11 kt METAR LFOT 142130Z AUTO 25011KT CAVOK 15/10 Q1008 TEMPO 23020G30KT 2500 SHRA BKN020TCU
23:00
V
15 °C 10 km+ - 240° 240° 10 kt METAR LFOT 142100Z AUTO 24010KT 9999 ///TCU 15/10 Q1007 TEMPO 23020G30KT 2500 SHRA
22:30
V
15 °C 10 km+ - 240° 240° 13 kt METAR LFOT 142030Z AUTO 24013KT 9999 //////TCU 15/09 Q1007 TEMPO 23020G30KT 2500 SHRA
22:00
V
16 °C 10 km+ 5.000 ft 260° 260° 12 kt METAR LFOT 142000Z AUTO 26012KT 9999 SCT031 SCT040 BKN050 16/10 Q1007 TEMPO 4000 -SHRA SCT030TCU
21:30
V
17 °C 10 km+ 7.200 ft 230° 230° 13 kt METAR LFOT 141930Z AUTO 23013KT 9999 FEW048/// BKN072/// ///TCU 17/11 Q1006 TEMPO 4000 -SHRA
21:00
V
18 °C 10 km+ - 230° 230° 12 kt METAR LFOT 141900Z AUTO 23012KT 210V270 9999 FEW039 18/11 Q1006 TEMPO 4000 -SHRA SCT030TCU
20:30
V
19 °C 10 km+ 5.800 ft 230° 230° 15 kt METAR LFOT 141830Z AUTO 23015KT 200V260 9999 SCT039 BKN058 BKN078 19/10 Q1006 TEMPO 4000 -SHRA SCT030TCU
20:00
V
20 °C 10 km+ 4.800 ft 230° 230° 16 kt METAR LFOT 141800Z AUTO 23016KT 9999 SCT041 BKN048 BKN054 20/11 Q1006 TEMPO 4000 -SHRA SCT030TCU
19:30
V
20 °C 10 km+ 7.000 ft 230° 230° 18 kt METAR LFOT 141730Z AUTO 23018KT 9999 FEW041/// BKN070/// //////TCU 20/11 Q1006 TEMPO 22015G25KT 4000 -SHRA
19:00
V
21 °C 10 km+ 8.200 ft 230° 230° 20 kt METAR LFOT 141700Z AUTO 23020KT 9999 FEW047 SCT062 BKN082 21/10 Q1006 TEMPO 23020G30KT 4000 -SHRA SCT020TCU
18:30
V
21 °C 10 km+ 8.000 ft 230° 230° 18 kt METAR LFOT 141630Z AUTO 23018KT 9999 FEW044 SCT064 BKN080 21/10 Q1006 TEMPO 23020G30KT 4000 -SHRA SCT020TCU
18:00
V
22 °C 10 km+ 7.600 ft 220° 220° 19 kt METAR LFOT 141600Z AUTO 22019KT 9999 FEW047 SCT062 BKN076 22/11 Q1006 TEMPO 23020G30KT 4000 -SHRA SCT020TCU
17:30
V
23 °C 10 km+ 7.800 ft 230° 230° 17 kt METAR LFOT 141530Z AUTO 23017KT 200V260 9999 SCT049 SCT058 BKN078 23/11 Q1007 TEMPO 23020G30KT 4000 -SHRA SCT020TCU
17:00
V
22 °C 10 km+ - 220° 220° 16 kt METAR LFOT 141500Z AUTO 22016KT 190V250 CAVOK 22/10 Q1007 TEMPO 23020G30KT 4000 -SHRA SCT020TCU
16:30
V
22 °C 10 km+ - 220° 220° 15 kt METAR LFOT 141430Z AUTO 22015KT 190V250 CAVOK 22/10 Q1007 TEMPO 23020G30KT 4000 -SHRA SCT020TCU
16:00
V
23 °C 10 km+ - 230° 230° 14 kt METAR LFOT 141400Z AUTO 23014KT 190V270 CAVOK 23/11 Q1007 TEMPO 23020G30KT 4000 -SHRA SCT020TCU
15:30
V
22 °C 10 km+ 5.400 ft 240° 240° 16 kt METAR LFOT 141330Z AUTO 24016KT 9999 FEW044 BKN054 BKN066 22/10 Q1007 TEMPO 23020G30KT 4000 -SHRA SCT020TCU
15:00
V
21 °C 10 km+ 4.400 ft 230° 230° 12 kt METAR LFOT 141300Z AUTO 23012KT 200V280 9999 BKN044 BKN056 OVC066 21/11 Q1008 TEMPO 23020G30KT 4000 -SHRA SCT020TCU
14:30
V
22 °C 10 km+ 4.900 ft 220° 220° 14 kt METAR LFOT 141230Z AUTO 22014KT 9999 SCT043 BKN049 BKN066 22/11 Q1008 TEMPO 23020G30KT 4000 -SHRA SCT020TCU
14:00
V
21 °C 10 km+ 4.200 ft 220° 220° 13 kt METAR LFOT 141200Z AUTO 22013KT 170V240 9999 BKN042 BKN048 OVC060 21/11 Q1008 NOSIG
13:30
V
20 °C 10 km+ 4.300 ft 220° 220° 15 kt METAR LFOT 141130Z AUTO 22015KT 9999 FEW034 BKN043 BKN050 20/11 Q1008 NOSIG
13:00
V
20 °C 10 km+ 4.900 ft 240° 240° 10 kt METAR LFOT 141100Z AUTO 24010KT 200V270 9999 FEW035 SCT042 BKN049 20/12 Q1009 BECMG 22015G30KT
12:30
V
20 °C 10 km+ 4.800 ft 250° 250° 10 kt METAR LFOT 141030Z AUTO 25010KT 220V280 9999 FEW028 SCT036 BKN048 20/13 Q1009 BECMG 22015G30KT
12:00
V
19 °C 10 km+ 4.600 ft 240° 240° 10 kt METAR LFOT 141000Z AUTO 24010KT 210V270 9999 FEW025 BKN046 OVC054 19/13 Q1009 NOSIG
11:30
V
18 °C 10 km+ 4.700 ft 240° 240° 10 kt METAR LFOT 140930Z AUTO 24010KT 200V260 9999 FEW036 BKN047 OVC054 18/13 Q1009 NOSIG
11:00
V
17 °C 10 km+ 3.300 ft 250° 250° 9 kt METAR LFOT 140900Z AUTO 25009KT 9999 BKN033 BKN039 OVC049 17/13 Q1009 NOSIG
10:30
V
17 °C 10 km+ 4.300 ft 250° 250° 11 kt METAR LFOT 140830Z AUTO 25011KT 220V280 9999 BKN043 OVC050 17/13 Q1009 NOSIG
10:00
V
16 °C 10 km+ 3.600 ft 250° 250° 7 kt METAR LFOT 140800Z AUTO 25007KT 190V280 9999 FEW017 BKN036 OVC044 16/13 Q1010 TEMPO BKN012
09:30
V
16 °C 10 km+ 3.400 ft 270° 270° 7 kt METAR LFOT 140730Z AUTO 27007KT 230V300 9999 FEW014 SCT027 BKN034 16/13 Q1010 NOSIG
09:00
M
15 °C 10 km+ 2.700 ft 270° 270° 9 kt METAR LFOT 140700Z AUTO 27009KT 9999 FEW014 SCT020 BKN027 15/13 Q1009 TEMPO BKN012 BECMG 21010KT
08:30
M
15 °C 10 km+ 1.100 ft 270° 270° 9 kt METAR LFOT 140630Z AUTO 27009KT 220V310 9999 BKN011 BKN018 OVC047 15/13 Q1009 BECMG BKN040
08:00
V
16 °C 9 km 4.600 ft 240° 240° 9 kt METAR LFOT 140600Z AUTO 24009KT 9000 FEW010 BKN046 16/14 Q1009 BECMG BKN012
07:30
V
16 °C 10 km+ 4.500 ft 230° 230° 9 kt METAR LFOT 140530Z AUTO 23009KT 9999 SCT010 SCT014 OVC045 16/15 Q1009 BECMG BKN012
07:00
I
15 °C 10 km+ 800 ft 230° 230° 7 kt METAR LFOT 140500Z AUTO 23007KT 9999 BKN008 BKN014 OVC046 15/15 Q1009 BECMG BKN020
06:30
I
15 °C 10 km+ 600 ft 230° 230° 8 kt METAR LFOT 140430Z AUTO 23008KT 9999 BKN006 OVC010 15/15 Q1009 BECMG BKN020
06:00
I
15 °C 4,9 km 800 ft 210° 210° 8 kt METAR LFOT 140400Z AUTO 21008KT 4900 DZ BR OVC008 15/14 Q1009 BECMG 9999 NSW BKN014
05:30
I
15 °C 10 km+ 800 ft 210° 210° 8 kt METAR LFOT 140330Z AUTO 21008KT 9999 OVC008 15/14 Q1009 TEMPO 3000 -DZRA BECMG BKN014
05:00
I
14 °C 10 km+ 600 ft 200° 200° 9 kt METAR LFOT 140300Z AUTO 20009KT 9999 OVC006 14/14 Q1009 TEMPO 3000 -DZRA BKN004
04:30
I
14 °C 4,6 km 600 ft 190° 190° 10 kt METAR LFOT 140230Z AUTO 19010KT 4600 -DZ BR OVC006 14/13 Q1009 TEMPO BKN004
04:00
I
14 °C 6 km 900 ft 190° 190° 10 kt METAR LFOT 140200Z AUTO 19010KT 160V220 6000 -RADZ OVC009 14/12 Q1009 TEMPO 3000 -DZRA BKN004
03:30
M
14 °C 10 km+ 1.100 ft 190° 190° 11 kt METAR LFOT 140130Z AUTO 19011KT 9999 BKN011 OVC021 14/12 Q1010 TEMPO 3000 -DZRA BKN004
03:00
M
14 °C 10 km+ 1.400 ft 190° 190° 11 kt METAR LFOT 140100Z AUTO 19011KT 9999 OVC014/// ///TCU 14/11 Q1010 TEMPO 3000 -DZRA BKN004
02:30
M
14 °C 10 km+ 1.900 ft 190° 190° 11 kt METAR LFOT 140030Z AUTO 19011KT 9999 OVC019 14/10 Q1010 TEMPO 3000 -DZRA BKN004
02:00
M
14 °C 10 km+ 2.100 ft 200° 200° 10 kt METAR LFOT 140000Z AUTO 20010KT 170V230 9999 -RA BKN021 OVC031 14/10 Q1011 TEMPO 3000 -DZRA BKN004
01:30
V
14 °C 10 km+ 3.900 ft 190° 190° 8 kt METAR LFOT 132330Z AUTO 19008KT 9999 OVC039 14/09 Q1011 TEMPO 3000 -DZRA BKN004
01:00
V
14 °C 10 km+ 4.600 ft 190° 190° 7 kt METAR LFOT 132300Z AUTO 19007KT 160V220 9999 BKN046 BKN064 BKN086 14/08 Q1011 BECMG BKN012
00:30
V
14 °C 10 km+ - 170° 170° 5 kt METAR LFOT 132230Z AUTO 17005KT 9999 -DZ NSC 14/09 Q1012 BECMG BKN012
00:00
V
14 °C 10 km+ - 190° 190° 5 kt METAR LFOT 132200Z AUTO 19005KT 9999 -RA NSC 14/08 Q1012 BECMG BKN012

13 de junho de 2024

Hora Código Clima Temp. Visibilidade Tecto Vento METAR/SPECI
23:30
V
14 °C 10 km+ - 220° 220° 5 kt METAR LFOT 132130Z AUTO 22005KT 180V250 9999 -RADZ NSC 14/08 Q1013 BECMG BKN012
23:00
V
15 °C 10 km+ - 240° 240° 5 kt METAR LFOT 132100Z AUTO 24005KT 9999 -RA NSC 15/08 Q1013 NOSIG
22:30
V
15 °C 10 km+ - 250° 250° 7 kt METAR LFOT 132030Z AUTO 25007KT CAVOK 15/08 Q1013 NOSIG
22:00
V
15 °C 10 km+ - 250° 250° 5 kt METAR LFOT 132000Z AUTO 25005KT 9999 -RA NSC 15/10 Q1013 NOSIG
21:30
V
16 °C 10 km+ - 250° 250° 5 kt METAR LFOT 131930Z AUTO 25005KT 9999 -RA NSC 16/10 Q1013 NOSIG
21:00
V
16 °C 10 km+ - 250° 250° 10 kt METAR LFOT 131900Z AUTO 25010KT 9999 -RA ///TCU 16/10 Q1013 BECMG NSC
20:30
V
19 °C 10 km+ - 250° 250° 11 kt METAR LFOT 131830Z AUTO 25011KT 9999 -RA ///TCU 19/10 Q1013 BECMG NSC
20:00
V
20 °C 10 km+ - 230° 230° 10 kt METAR LFOT 131800Z AUTO 23010KT CAVOK 20/07 Q1013 NOSIG
19:30
V
20 °C 10 km+ - 220° 220° 8 kt METAR LFOT 131730Z AUTO 22008KT 190V260 CAVOK 20/06 Q1013 NOSIG
19:00
V
21 °C 10 km+ - 220° 220° 14 kt METAR LFOT 131700Z AUTO 22014KT CAVOK 21/05 Q1013 NOSIG
18:00
V
22 °C 10 km+ - 210° 210° 10 kt METAR LFOT 131600Z AUTO 21010KT 180V240 CAVOK 22/05 Q1013 NOSIG
17:30
V
22 °C 10 km+ - 200° 200° 11 kt METAR LFOT 131530Z AUTO 20011KT 160V250 CAVOK 22/06 Q1013 NOSIG
17:00
V
22 °C 10 km+ - 220° 220° 14 kt METAR LFOT 131500Z AUTO 22014KT 180V250 CAVOK 22/04 Q1014 NOSIG
16:30
V
22 °C 10 km+ - 210° 210° 11 kt METAR LFOT 131430Z AUTO 21011KT 170V240 CAVOK 22/05 Q1014 NOSIG
16:00
V
21 °C 10 km+ - 200° 200° 12 kt METAR LFOT 131400Z AUTO 20012KT CAVOK 21/04 Q1015 NOSIG
15:30
V
22 °C 10 km+ - 200° 200° 12 kt METAR LFOT 131330Z AUTO 20012KT 160V240 CAVOK 22/06 Q1015 NOSIG
15:00
V
22 °C 10 km+ - 190° 190° 10 kt METAR LFOT 131300Z AUTO 19010KT 130V230 CAVOK 22/06 Q1016 NOSIG
14:30
V
21 °C 10 km+ - 170° 170° 10 kt METAR LFOT 131230Z AUTO 17010KT CAVOK 21/06 Q1016 NOSIG
14:00
V
20 °C 10 km+ - 180° 180° 9 kt METAR LFOT 131200Z AUTO 18009KT 130V230 CAVOK 20/05 Q1016 NOSIG
13:30
V
20 °C 10 km+ - 180° 180° 7 kt METAR LFOT 131130Z AUTO 18007KT 130V220 CAVOK 20/06 Q1017 NOSIG
13:00
V
20 °C 10 km+ - 200° 200° 9 kt METAR LFOT 131100Z AUTO 20009KT 160V250 CAVOK 20/05 Q1017 NOSIG
12:30
V
20 °C 10 km+ - 200° 200° 8 kt METAR LFOT 131030Z AUTO 20008KT 160V240 CAVOK 20/06 Q1017 NOSIG
12:00
V
19 °C 10 km+ - 190° 190° 9 kt METAR LFOT 131000Z AUTO 19009KT 160V230 CAVOK 19/06 Q1018 NOSIG
11:30
V
19 °C 10 km+ - 180° 180° 7 kt METAR LFOT 130930Z AUTO 18007KT 130V230 CAVOK 19/09 Q1018 NOSIG
11:00
V
18 °C 10 km+ - 170° 170° 8 kt METAR LFOT 130900Z AUTO 17008KT 140V200 CAVOK 18/08 Q1018 NOSIG
10:30
V
17 °C 10 km+ - 160° 160° 6 kt METAR LFOT 130830Z AUTO 16006KT 110V190 CAVOK 17/09 Q1018 NOSIG
10:00
V
15 °C 10 km+ - 160° 160° 5 kt METAR LFOT 130800Z AUTO 16005KT 130V200 CAVOK 15/09 Q1019 NOSIG
09:30
V
15 °C 10 km+ - 150° 150° 3 kt METAR LFOT 130730Z AUTO 15003KT 110V190 CAVOK 15/09 Q1019 NOSIG
09:00
V
14 °C 10 km+ - 120° 120° 4 kt METAR LFOT 130700Z AUTO 12004KT 070V150 CAVOK 14/09 Q1019 NOSIG
08:30
V
13 °C 10 km+ - Var Var 2 kt METAR LFOT 130630Z AUTO VRB02KT CAVOK 13/08 Q1019 NOSIG
08:00
V
13 °C 10 km+ - Var Var 1 kt METAR LFOT 130600Z AUTO VRB01KT CAVOK 13/08 Q1019 NOSIG
Relatar uma mudança